sensor_id;sensor_type;location;lat;lon;timestamp;pressure;altitude;pressure_sealevel;temperature;humidity
61474;BME280;53694;49.784;30.150;2023-01-13T00:00:26;100374.30;;;-1.60;75.23
61474;BME280;53694;49.784;30.150;2023-01-13T00:01:28;100377.62;;;-1.32;74.78
61474;BME280;53694;49.784;30.150;2023-01-13T00:02:29;100375.84;;;-1.01;74.20
61474;BME280;53694;49.784;30.150;2023-01-13T00:03:31;100372.92;;;-0.69;73.34
61474;BME280;53694;49.784;30.150;2023-01-13T00:04:33;100380.49;;;-0.40;72.23
61474;BME280;53694;49.784;30.150;2023-01-13T00:05:36;100370.20;;;-0.13;71.41
61474;BME280;53694;49.784;30.150;2023-01-13T00:06:38;100371.81;;;0.09;70.41
61474;BME280;53694;49.784;30.150;2023-01-13T02:22:14;100303.12;;;-4.55;100.00
61474;BME280;53694;49.784;30.150;2023-01-13T02:31:28;100308.20;;;-0.59;87.83
61474;BME280;53694;49.784;30.150;2023-01-13T02:34:08;100297.81;;;-0.01;82.00
61474;BME280;53694;49.784;30.150;2023-01-13T02:37:53;100299.44;;;0.65;75.64
61474;BME280;53694;49.784;30.150;2023-01-13T02:41:17;100303.31;;;0.93;71.44
61474;BME280;53694;49.784;30.150;2023-01-13T02:42:25;100301.11;;;1.00;71.11
61474;BME280;53694;49.784;30.150;2023-01-13T02:43:31;100304.02;;;1.09;70.73
61474;BME280;53694;49.784;30.150;2023-01-13T02:44:37;100306.42;;;1.16;69.68
61474;BME280;53694;49.784;30.150;2023-01-13T02:45:56;100306.38;;;1.21;68.74
61474;BME280;53694;49.784;30.150;2023-01-13T02:47:05;100304.18;;;1.23;68.37
61474;BME280;53694;49.784;30.150;2023-01-13T02:48:08;100312.92;;;1.15;67.32
61474;BME280;53694;49.784;30.150;2023-01-13T02:49:15;100310.14;;;0.86;67.48
61474;BME280;53694;49.784;30.150;2023-01-13T02:50:19;100305.49;;;0.47;68.37
61474;BME280;53694;49.784;30.150;2023-01-13T02:51:24;100306.18;;;0.03;69.30
61474;BME280;53694;49.784;30.150;2023-01-13T02:52:33;100302.75;;;-0.38;70.38
61474;BME280;53694;49.784;30.150;2023-01-13T02:53:41;100309.80;;;-0.83;71.29
61474;BME280;53694;49.784;30.150;2023-01-13T02:54:46;100313.52;;;-1.30;72.91
61474;BME280;53694;49.784;30.150;2023-01-13T02:55:51;100304.78;;;-1.63;74.46
61474;BME280;53694;49.784;30.150;2023-01-13T02:56:55;100295.59;;;-1.72;75.57
61474;BME280;53694;49.784;30.150;2023-01-13T02:58:00;100303.17;;;-1.64;76.19
61474;BME280;53694;49.784;30.150;2023-01-13T02:59:04;100296.49;;;-1.41;76.44
61474;BME280;53694;49.784;30.150;2023-01-13T03:00:08;100302.22;;;-1.17;75.74
61474;BME280;53694;49.784;30.150;2023-01-13T03:01:11;100301.97;;;-0.90;75.12
61474;BME280;53694;49.784;30.150;2023-01-13T03:02:15;100306.84;;;-0.66;74.20
61474;BME280;53694;49.784;30.150;2023-01-13T03:03:18;100301.69;;;-0.47;73.30
61474;BME280;53694;49.784;30.150;2023-01-13T03:04:46;100302.76;;;-0.28;72.72
61474;BME280;53694;49.784;30.150;2023-01-13T03:05:53;100301.65;;;-0.12;71.96
61474;BME280;53694;49.784;30.150;2023-01-13T03:07:03;100298.04;;;0.18;71.30
61474;BME280;53694;49.784;30.150;2023-01-13T03:08:17;100298.80;;;0.34;69.44
61474;BME280;53694;49.784;30.150;2023-01-13T03:09:28;100292.27;;;0.40;69.00
61474;BME280;53694;49.784;30.150;2023-01-13T03:10:46;100303.56;;;0.53;68.89
61474;BME280;53694;49.784;30.150;2023-01-13T03:11:55;100293.27;;;0.55;68.63
61474;BME280;53694;49.784;30.150;2023-01-13T03:13:11;100297.39;;;0.42;68.95
61474;BME280;53694;49.784;30.150;2023-01-13T03:14:34;100302.09;;;0.16;69.13
61474;BME280;53694;49.784;30.150;2023-01-13T03:20:52;100300.95;;;-1.82;74.93
61474;BME280;53694;49.784;30.150;2023-01-13T03:23:36;100300.75;;;-1.65;75.86
61474;BME280;53694;49.784;30.150;2023-01-13T03:24:45;100304.86;;;-1.32;75.19
61474;BME280;53694;49.784;30.150;2023-01-13T03:26:02;100310.86;;;-0.99;74.45
61474;BME280;53694;49.784;30.150;2023-01-13T03:27:30;100307.91;;;-0.72;73.80
61474;BME280;53694;49.784;30.150;2023-01-13T03:28:32;100300.88;;;-0.43;72.09
61474;BME280;53694;49.784;30.150;2023-01-13T03:29:45;100301.66;;;-0.17;71.35
61474;BME280;53694;49.784;30.150;2023-01-13T03:31:02;100307.27;;;0.02;70.25
61474;BME280;53694;49.784;30.150;2023-01-13T03:34:09;100303.91;;;0.36;68.56
61474;BME280;53694;49.784;30.150;2023-01-13T03:34:47;100299.80;;;0.48;68.00
61474;BME280;53694;49.784;30.150;2023-01-13T03:35:52;100299.52;;;0.50;67.45
61474;BME280;53694;49.784;30.150;2023-01-13T03:36:56;100300.14;;;0.32;67.49
61474;BME280;53694;49.784;30.150;2023-01-13T03:38:03;100292.41;;;-0.01;68.05
61474;BME280;53694;49.784;30.150;2023-01-13T03:39:11;100296.30;;;-0.37;69.08
61474;BME280;53694;49.784;30.150;2023-01-13T03:40:20;100304.41;;;-0.78;69.95
61474;BME280;53694;49.784;30.150;2023-01-13T03:41:29;100303.02;;;-1.21;71.45
61474;BME280;53694;49.784;30.150;2023-01-13T03:42:32;100304.27;;;-1.60;72.82
61474;BME280;53694;49.784;30.150;2023-01-13T03:43:56;100294.39;;;-2.02;74.44
61474;BME280;53694;49.784;30.150;2023-01-13T03:45:03;100295.86;;;-2.26;75.88
61474;BME280;53694;49.784;30.150;2023-01-13T03:46:10;100292.61;;;-2.33;77.17
61474;BME280;53694;49.784;30.150;2023-01-13T03:47:37;100293.76;;;-2.19;77.51
61474;BME280;53694;49.784;30.150;2023-01-13T03:48:37;100295.50;;;-1.92;77.39
61474;BME280;53694;49.784;30.150;2023-01-13T03:49:56;100295.10;;;-1.59;76.59
61474;BME280;53694;49.784;30.150;2023-01-13T03:51:06;100296.78;;;-1.32;75.87
61474;BME280;53694;49.784;30.150;2023-01-13T03:52:14;100299.55;;;-0.96;74.87
61474;BME280;53694;49.784;30.150;2023-01-13T03:53:36;100296.86;;;-0.71;73.32
61474;BME280;53694;49.784;30.150;2023-01-13T03:54:54;100289.02;;;-0.52;72.35
61474;BME280;53694;49.784;30.150;2023-01-13T03:55:56;100298.16;;;-0.28;71.66
61474;BME280;53694;49.784;30.150;2023-01-13T03:57:01;100297.84;;;-0.06;70.80
61474;BME280;53694;49.784;30.150;2023-01-13T03:58:06;100291.86;;;0.13;70.27
61474;BME280;53694;49.784;30.150;2023-01-13T03:59:12;100300.44;;;0.30;69.36
61474;BME280;53694;49.784;30.150;2023-01-13T04:00:15;100296.03;;;0.44;68.87
61474;BME280;53694;49.784;30.150;2023-01-13T04:01:31;100298.93;;;0.58;68.44
61474;BME280;53694;49.784;30.150;2023-01-13T04:04:09;100294.94;;;0.45;67.47
61474;BME280;53694;49.784;30.150;2023-01-13T04:05:09;100290.78;;;0.04;68.27
61474;BME280;53694;49.784;30.150;2023-01-13T04:06:14;100297.36;;;-0.38;69.45
61474;BME280;53694;49.784;30.150;2023-01-13T04:08:57;100301.41;;;-1.17;71.40
61474;BME280;53694;49.784;30.150;2023-01-13T04:10:01;100300.46;;;-1.69;73.45
61474;BME280;53694;49.784;30.150;2023-01-13T04:11:21;100305.17;;;-1.96;75.01
61474;BME280;53694;49.784;30.150;2023-01-13T04:12:50;100302.75;;;-1.98;75.96
61474;BME280;53694;49.784;30.150;2023-01-13T04:13:51;100308.48;;;-1.79;76.38
61474;BME280;53694;49.784;30.150;2023-01-13T04:14:55;100306.47;;;-1.41;75.93
61474;BME280;53694;49.784;30.150;2023-01-13T04:15:58;100298.44;;;-1.16;74.98
61474;BME280;53694;49.784;30.150;2023-01-13T04:17:00;100304.94;;;-0.91;74.07
61474;BME280;53694;49.784;30.150;2023-01-13T04:18:17;100302.78;;;-0.69;73.46
61474;BME280;53694;49.784;30.150;2023-01-13T04:19:20;100297.94;;;-0.46;73.05
61474;BME280;53694;49.784;30.150;2023-01-13T04:20:22;100298.41;;;-0.19;72.08
61474;BME280;53694;49.784;30.150;2023-01-13T04:21:24;100291.87;;;0.03;71.18
61474;BME280;53694;49.784;30.150;2023-01-13T04:22:26;100295.60;;;0.22;70.35
61474;BME280;53694;49.784;30.150;2023-01-13T04:23:28;100305.27;;;0.38;69.63
61474;BME280;53694;49.784;30.150;2023-01-13T04:24:29;100305.72;;;0.50;68.84
61474;BME280;53694;49.784;30.150;2023-01-13T04:25:31;100298.90;;;0.63;68.45
61474;BME280;53694;49.784;30.150;2023-01-13T04:26:33;100294.29;;;0.69;68.13
61474;BME280;53694;49.784;30.150;2023-01-13T04:27:35;100294.87;;;0.61;67.87
61474;BME280;53694;49.784;30.150;2023-01-13T04:28:36;100299.02;;;0.38;67.97
61474;BME280;53694;49.784;30.150;2023-01-13T04:29:38;100296.73;;;0.06;68.61
61474;BME280;53694;49.784;30.150;2023-01-13T04:30:40;100293.30;;;-0.31;69.26
61474;BME280;53694;49.784;30.150;2023-01-13T04:31:42;100297.94;;;-0.67;70.47
61474;BME280;53694;49.784;30.150;2023-01-13T04:32:44;100303.86;;;-1.01;71.52
61474;BME280;53694;49.784;30.150;2023-01-13T04:33:46;100300.03;;;-1.35;72.63
61474;BME280;53694;49.784;30.150;2023-01-13T04:34:47;100300.48;;;-1.59;73.79
61474;BME280;53694;49.784;30.150;2023-01-13T04:35:49;100306.95;;;-1.65;74.45
61474;BME280;53694;49.784;30.150;2023-01-13T04:36:50;100311.27;;;-1.59;74.81
61474;BME280;53694;49.784;30.150;2023-01-13T04:37:52;100304.05;;;-1.43;74.87
61474;BME280;53694;49.784;30.150;2023-01-13T04:38:53;100298.99;;;-1.19;74.85
61474;BME280;53694;49.784;30.150;2023-01-13T04:39:55;100300.08;;;-0.94;74.05
61474;BME280;53694;49.784;30.150;2023-01-13T04:40:56;100298.48;;;-0.70;73.58
61474;BME280;53694;49.784;30.150;2023-01-13T04:41:58;100303.85;;;-0.44;72.86
61474;BME280;53694;49.784;30.150;2023-01-13T04:43:00;100301.13;;;-0.24;71.58
61474;BME280;53694;49.784;30.150;2023-01-13T04:44:01;100296.23;;;-0.07;70.69
61474;BME280;53694;49.784;30.150;2023-01-13T04:45:03;100299.15;;;0.07;70.05
61474;BME280;53694;49.784;30.150;2023-01-13T04:46:05;100295.60;;;0.22;69.25
61474;BME280;53694;49.784;30.150;2023-01-13T04:47:07;100298.25;;;0.32;68.33
61474;BME280;53694;49.784;30.150;2023-01-13T04:48:08;100299.86;;;0.38;67.51
61474;BME280;53694;49.784;30.150;2023-01-13T04:49:10;100291.49;;;0.30;67.32
61474;BME280;53694;49.784;30.150;2023-01-13T04:50:12;100294.30;;;0.09;67.74
61474;BME280;53694;49.784;30.150;2023-01-13T04:51:13;100294.64;;;-0.23;68.34
61474;BME280;53694;49.784;30.150;2023-01-13T04:52:15;100297.41;;;-0.59;69.60
61474;BME280;53694;49.784;30.150;2023-01-13T04:53:16;100299.27;;;-0.95;70.87
61474;BME280;53694;49.784;30.150;2023-01-13T04:54:18;100302.17;;;-1.32;71.99
61474;BME280;53694;49.784;30.150;2023-01-13T04:55:22;100303.69;;;-1.67;73.29
61474;BME280;53694;49.784;30.150;2023-01-13T04:56:24;100299.56;;;-1.90;74.64
61474;BME280;53694;49.784;30.150;2023-01-13T04:57:25;100298.47;;;-1.94;75.47
61474;BME280;53694;49.784;30.150;2023-01-13T04:58:27;100296.36;;;-1.87;75.58
61474;BME280;53694;49.784;30.150;2023-01-13T04:59:28;100293.47;;;-1.70;75.67
61474;BME280;53694;49.784;30.150;2023-01-13T05:00:30;100292.45;;;-1.48;75.37
61474;BME280;53694;49.784;30.150;2023-01-13T05:01:32;100295.45;;;-1.24;74.86
61474;BME280;53694;49.784;30.150;2023-01-13T05:02:33;100291.47;;;-1.02;74.32
61474;BME280;53694;49.784;30.150;2023-01-13T05:03:35;100288.22;;;-0.78;73.74
61474;BME280;53694;49.784;30.150;2023-01-13T05:04:36;100282.30;;;-0.55;72.87
61474;BME280;53694;49.784;30.150;2023-01-13T05:05:38;100290.08;;;-0.33;71.81
61474;BME280;53694;49.784;30.150;2023-01-13T05:06:40;100291.66;;;-0.21;70.71
61474;BME280;53694;49.784;30.150;2023-01-13T05:07:41;100292.18;;;-0.04;70.52
61474;BME280;53694;49.784;30.150;2023-01-13T05:08:43;100288.61;;;0.11;69.77
61474;BME280;53694;49.784;30.150;2023-01-13T05:09:44;100295.05;;;0.20;68.90
61474;BME280;53694;49.784;30.150;2023-01-13T05:10:46;100288.56;;;0.26;68.31
61474;BME280;53694;49.784;30.150;2023-01-13T05:11:47;100300.95;;;0.32;68.53
61474;BME280;53694;49.784;30.150;2023-01-13T05:12:49;100293.96;;;0.21;68.28
61474;BME280;53694;49.784;30.150;2023-01-13T05:13:50;100291.34;;;-0.05;68.66
61474;BME280;53694;49.784;30.150;2023-01-13T05:14:52;100299.80;;;-0.37;69.55
61474;BME280;53694;49.784;30.150;2023-01-13T05:15:53;100293.64;;;-0.68;70.37
61474;BME280;53694;49.784;30.150;2023-01-13T05:16:55;100300.08;;;-1.05;71.14
61474;BME280;53694;49.784;30.150;2023-01-13T05:17:57;100302.69;;;-1.40;72.23
61474;BME280;53694;49.784;30.150;2023-01-13T05:18:59;100299.91;;;-1.66;73.44
61474;BME280;53694;49.784;30.150;2023-01-13T05:20:00;100299.36;;;-1.78;74.03
61474;BME280;53694;49.784;30.150;2023-01-13T05:21:02;100303.14;;;-1.74;74.61
61474;BME280;53694;49.784;30.150;2023-01-13T05:22:04;100309.65;;;-1.60;74.76
61474;BME280;53694;49.784;30.150;2023-01-13T05:23:05;100307.27;;;-1.41;74.56
61474;BME280;53694;49.784;30.150;2023-01-13T05:24:08;100299.52;;;-1.17;74.20
61474;BME280;53694;49.784;30.150;2023-01-13T05:25:10;100310.34;;;-0.91;73.64
61474;BME280;53694;49.784;30.150;2023-01-13T05:26:12;100304.95;;;-0.66;72.84
61474;BME280;53694;49.784;30.150;2023-01-13T05:27:14;100305.75;;;-0.45;71.81
61474;BME280;53694;49.784;30.150;2023-01-13T05:28:16;100295.98;;;-0.26;71.14
61474;BME280;53694;49.784;30.150;2023-01-13T05:29:17;100297.86;;;-0.11;69.96
61474;BME280;53694;49.784;30.150;2023-01-13T05:30:21;100302.96;;;0.01;69.01
61474;BME280;53694;49.784;30.150;2023-01-13T05:31:23;100298.32;;;0.12;68.09
61474;BME280;53694;49.784;30.150;2023-01-13T05:32:25;100302.66;;;0.08;67.74
61474;BME280;53694;49.784;30.150;2023-01-13T05:33:27;100302.17;;;-0.10;67.87
61474;BME280;53694;49.784;30.150;2023-01-13T05:34:28;100303.83;;;-0.34;68.67
61474;BME280;53694;49.784;30.150;2023-01-13T05:35:32;100301.73;;;-0.68;69.09
61474;BME280;53694;49.784;30.150;2023-01-13T05:36:34;100301.97;;;-1.05;70.03
61474;BME280;53694;49.784;30.150;2023-01-13T05:37:35;100294.59;;;-1.45;71.16
61474;BME280;53694;49.784;30.150;2023-01-13T05:38:37;100299.06;;;-1.82;72.36
61474;BME280;53694;49.784;30.150;2023-01-13T05:39:39;100303.52;;;-2.08;73.56
61474;BME280;53694;49.784;30.150;2023-01-13T05:40:41;100294.86;;;-2.15;74.52
61474;BME280;53694;49.784;30.150;2023-01-13T05:41:43;100295.47;;;-2.03;74.84
61474;BME280;53694;49.784;30.150;2023-01-13T05:42:44;100304.44;;;-1.87;74.58
61474;BME280;53694;49.784;30.150;2023-01-13T05:43:46;100305.30;;;-1.66;74.11
61474;BME280;53694;49.784;30.150;2023-01-13T05:44:47;100305.66;;;-1.42;73.66
61474;BME280;53694;49.784;30.150;2023-01-13T05:46:00;100307.08;;;-1.19;72.73
61474;BME280;53694;49.784;30.150;2023-01-13T05:47:02;100306.56;;;-1.01;71.88
61474;BME280;53694;49.784;30.150;2023-01-13T05:48:04;100320.06;;;-0.75;71.66
61474;BME280;53694;49.784;30.150;2023-01-13T05:49:06;100317.89;;;-0.53;70.91
61474;BME280;53694;49.784;30.150;2023-01-13T05:50:09;100305.47;;;-0.33;69.94
61474;BME280;53694;49.784;30.150;2023-01-13T05:51:11;100311.63;;;-0.17;68.98
61474;BME280;53694;49.784;30.150;2023-01-13T05:52:13;100310.80;;;-0.03;68.49
61474;BME280;53694;49.784;30.150;2023-01-13T05:53:16;100306.47;;;0.02;68.03
61474;BME280;53694;49.784;30.150;2023-01-13T05:54:17;100315.13;;;-0.07;67.61
61474;BME280;53694;49.784;30.150;2023-01-13T05:55:19;100313.00;;;-0.30;68.03
61474;BME280;53694;49.784;30.150;2023-01-13T05:56:20;100323.30;;;-0.58;68.53
61474;BME280;53694;49.784;30.150;2023-01-13T05:57:22;100315.73;;;-0.91;69.11
61474;BME280;53694;49.784;30.150;2023-01-13T05:58:25;100326.46;;;-1.27;70.17
61474;BME280;53694;49.784;30.150;2023-01-13T05:59:27;100327.70;;;-1.60;71.33
61474;BME280;53694;49.784;30.150;2023-01-13T06:00:29;100324.04;;;-1.91;72.43
61474;BME280;53694;49.784;30.150;2023-01-13T06:01:30;100326.08;;;-2.14;73.44
61474;BME280;53694;49.784;30.150;2023-01-13T06:02:32;100324.17;;;-2.18;74.06
61474;BME280;53694;49.784;30.150;2023-01-13T06:03:34;100318.59;;;-2.07;74.45
61474;BME280;53694;49.784;30.150;2023-01-13T06:04:36;100324.89;;;-1.86;74.10
61474;BME280;53694;49.784;30.150;2023-01-13T06:05:37;100328.48;;;-1.65;73.35
61474;BME280;53694;49.784;30.150;2023-01-13T06:06:39;100326.41;;;-1.42;72.90
61474;BME280;53694;49.784;30.150;2023-01-13T06:07:41;100318.39;;;-1.17;72.47
61474;BME280;53694;49.784;30.150;2023-01-13T06:08:42;100319.79;;;-0.89;71.92
61474;BME280;53694;49.784;30.150;2023-01-13T06:09:43;100331.11;;;-0.61;71.14
61474;BME280;53694;49.784;30.150;2023-01-13T06:10:45;100318.41;;;-0.35;70.23
61474;BME280;53694;49.784;30.150;2023-01-13T06:11:47;100314.59;;;-0.14;69.29
61474;BME280;53694;49.784;30.150;2023-01-13T06:12:49;100320.75;;;0.07;68.61
61474;BME280;53694;49.784;30.150;2023-01-13T06:13:50;100318.80;;;0.28;67.54
61474;BME280;53694;49.784;30.150;2023-01-13T06:14:52;100319.83;;;0.37;67.04
61474;BME280;53694;49.784;30.150;2023-01-13T06:15:57;100324.17;;;0.33;66.56
61474;BME280;53694;49.784;30.150;2023-01-13T06:16:59;100315.62;;;0.11;66.24
61474;BME280;53694;49.784;30.150;2023-01-13T06:18:02;100322.44;;;-0.22;66.66
61474;BME280;53694;49.784;30.150;2023-01-13T06:19:04;100328.14;;;-0.60;67.55
61474;BME280;53694;49.784;30.150;2023-01-13T06:20:06;100331.34;;;-0.98;68.51
61474;BME280;53694;49.784;30.150;2023-01-13T06:21:08;100322.91;;;-1.38;69.46
61474;BME280;53694;49.784;30.150;2023-01-13T06:22:20;100325.73;;;-1.75;70.83
61474;BME280;53694;49.784;30.150;2023-01-13T06:23:21;100316.98;;;-2.08;72.08
61474;BME280;53694;49.784;30.150;2023-01-13T06:24:23;100321.61;;;-2.40;73.46
61474;BME280;53694;49.784;30.150;2023-01-13T06:26:36;100322.29;;;-2.55;75.09
61474;BME280;53694;49.784;30.150;2023-01-13T06:27:36;100323.52;;;-2.36;75.42
61474;BME280;53694;49.784;30.150;2023-01-13T06:28:38;100322.89;;;-2.06;75.10
61474;BME280;53694;49.784;30.150;2023-01-13T06:29:39;100323.31;;;-1.77;74.27
61474;BME280;53694;49.784;30.150;2023-01-13T06:30:44;100316.70;;;-1.48;73.65
61474;BME280;53694;49.784;30.150;2023-01-13T06:31:46;100316.77;;;-1.18;72.65
61474;BME280;53694;49.784;30.150;2023-01-13T06:32:53;100325.43;;;-0.85;71.58
61474;BME280;53694;49.784;30.150;2023-01-13T06:34:11;100318.98;;;-0.59;70.83
61474;BME280;53694;49.784;30.150;2023-01-13T06:35:12;100320.30;;;-0.31;69.63
61474;BME280;53694;49.784;30.150;2023-01-13T06:36:18;100316.72;;;-0.01;68.54
61474;BME280;53694;49.784;30.150;2023-01-13T06:37:21;100318.82;;;0.23;67.59
61474;BME280;53694;49.784;30.150;2023-01-13T06:38:25;100320.95;;;0.31;66.29
61474;BME280;53694;49.784;30.150;2023-01-13T06:39:29;100322.04;;;0.25;66.36
61474;BME280;53694;49.784;30.150;2023-01-13T06:40:31;100322.13;;;0.05;66.44
61474;BME280;53694;49.784;30.150;2023-01-13T06:41:33;100318.13;;;-0.23;66.93
61474;BME280;53694;49.784;30.150;2023-01-13T06:42:36;100321.67;;;-0.54;67.74
61474;BME280;53694;49.784;30.150;2023-01-13T06:43:38;100326.27;;;-0.85;68.57
61474;BME280;53694;49.784;30.150;2023-01-13T06:44:40;100321.08;;;-1.17;69.46
61474;BME280;53694;49.784;30.150;2023-01-13T06:45:49;100318.82;;;-1.56;70.12
61474;BME280;53694;49.784;30.150;2023-01-13T06:46:47;100319.75;;;-1.87;71.50
61474;BME280;53694;49.784;30.150;2023-01-13T06:47:49;100323.36;;;-2.19;72.75
61474;BME280;53694;49.784;30.150;2023-01-13T06:48:51;100326.72;;;-2.39;73.77
61474;BME280;53694;49.784;30.150;2023-01-13T06:49:52;100326.18;;;-2.41;74.69
61474;BME280;53694;49.784;30.150;2023-01-13T06:50:54;100315.50;;;-2.26;74.96
61474;BME280;53694;49.784;30.150;2023-01-13T06:51:55;100326.69;;;-2.02;74.81
61474;BME280;53694;49.784;30.150;2023-01-13T06:52:57;100312.27;;;-1.75;74.17
61474;BME280;53694;49.784;30.150;2023-01-13T06:53:58;100319.92;;;-1.46;73.60
61474;BME280;53694;49.784;30.150;2023-01-13T06:55:00;100327.00;;;-1.15;72.82
61474;BME280;53694;49.784;30.150;2023-01-13T06:56:01;100328.69;;;-0.88;71.66
61474;BME280;53694;49.784;30.150;2023-01-13T06:57:03;100330.31;;;-0.62;70.80
61474;BME280;53694;49.784;30.150;2023-01-13T06:58:05;100327.33;;;-0.40;69.89
61474;BME280;53694;49.784;30.150;2023-01-13T06:59:06;100330.27;;;-0.16;69.25
61474;BME280;53694;49.784;30.150;2023-01-13T07:00:10;100330.75;;;0.07;68.48
61474;BME280;53694;49.784;30.150;2023-01-13T07:01:12;100329.08;;;0.21;67.54
61474;BME280;53694;49.784;30.150;2023-01-13T07:02:14;100334.50;;;0.16;67.19
61474;BME280;53694;49.784;30.150;2023-01-13T07:03:17;100332.11;;;-0.01;67.37
61474;BME280;53694;49.784;30.150;2023-01-13T07:04:19;100336.22;;;-0.24;67.71
61474;BME280;53694;49.784;30.150;2023-01-13T07:05:21;100327.59;;;-0.52;68.51
61474;BME280;53694;49.784;30.150;2023-01-13T07:06:26;100328.96;;;-0.80;69.12
61474;BME280;53694;49.784;30.150;2023-01-13T07:07:28;100331.34;;;-1.09;69.86
61474;BME280;53694;49.784;30.150;2023-01-13T07:08:30;100332.89;;;-1.38;70.89
61474;BME280;53694;49.784;30.150;2023-01-13T07:09:31;100324.16;;;-1.66;71.73
61474;BME280;53694;49.784;30.150;2023-01-13T07:10:35;100327.81;;;-1.92;72.62
61474;BME280;53694;49.784;30.150;2023-01-13T07:11:36;100330.95;;;-2.11;73.59
61474;BME280;53694;49.784;30.150;2023-01-13T07:12:39;100332.02;;;-2.12;74.34
61474;BME280;53694;49.784;30.150;2023-01-13T07:13:41;100324.70;;;-1.69;74.33
61474;BME280;53694;49.784;30.150;2023-01-13T07:14:42;100324.70;;;-1.69;74.33
61474;BME280;53694;49.784;30.150;2023-01-13T07:15:58;100331.56;;;-1.36;73.77
61474;BME280;53694;49.784;30.150;2023-01-13T07:17:01;100337.83;;;-1.05;73.02
61474;BME280;53694;49.784;30.150;2023-01-13T07:18:02;100325.44;;;-0.65;71.69
61474;BME280;53694;49.784;30.150;2023-01-13T07:19:04;100330.58;;;-0.38;70.21
61474;BME280;53694;49.784;30.150;2023-01-13T07:20:06;100324.05;;;-0.11;69.60
61474;BME280;53694;49.784;30.150;2023-01-13T07:21:10;100331.02;;;0.10;68.58
61474;BME280;53694;49.784;30.150;2023-01-13T07:22:12;100324.46;;;0.32;67.92
61474;BME280;53694;49.784;30.150;2023-01-13T07:23:14;100323.86;;;0.45;66.55
61474;BME280;53694;49.784;30.150;2023-01-13T07:24:16;100329.58;;;0.38;66.27
61474;BME280;53694;49.784;30.150;2023-01-13T07:25:17;100328.56;;;0.19;66.64
61474;BME280;53694;49.784;30.150;2023-01-13T07:26:19;100333.74;;;-0.05;67.15
61474;BME280;53694;49.784;30.150;2023-01-13T07:27:20;100329.20;;;-0.35;67.63
61474;BME280;53694;49.784;30.150;2023-01-13T07:28:26;100329.23;;;-0.66;68.46
61474;BME280;53694;49.784;30.150;2023-01-13T07:29:28;100335.69;;;-0.97;69.44
61474;BME280;53694;49.784;30.150;2023-01-13T07:30:30;100336.41;;;-1.28;70.59
61474;BME280;53694;49.784;30.150;2023-01-13T07:31:31;100331.21;;;-1.55;71.48
61474;BME280;53694;49.784;30.150;2023-01-13T07:32:33;100330.30;;;-1.81;72.37
61474;BME280;53694;49.784;30.150;2023-01-13T07:33:34;100318.63;;;-1.96;73.46
61474;BME280;53694;49.784;30.150;2023-01-13T07:34:36;100325.63;;;-1.95;74.03
61474;BME280;53694;49.784;30.150;2023-01-13T07:35:47;100329.22;;;-1.80;74.15
61474;BME280;53694;49.784;30.150;2023-01-13T07:36:59;100326.91;;;-1.56;73.95
61474;BME280;53694;49.784;30.150;2023-01-13T07:38:01;100323.50;;;-1.20;73.18
61474;BME280;53694;49.784;30.150;2023-01-13T07:39:03;100328.13;;;-0.85;72.39
61474;BME280;53694;49.784;30.150;2023-01-13T07:40:05;100324.66;;;-0.55;71.19
61474;BME280;53694;49.784;30.150;2023-01-13T07:41:12;100321.65;;;-0.28;70.33
61474;BME280;53694;49.784;30.150;2023-01-13T07:42:20;100326.46;;;0.01;69.18
61474;BME280;53694;49.784;30.150;2023-01-13T07:43:19;100326.91;;;0.28;68.50
61474;BME280;53694;49.784;30.150;2023-01-13T07:44:21;100322.22;;;0.49;67.44
61474;BME280;53694;49.784;30.150;2023-01-13T07:45:23;100323.80;;;0.60;66.39
61474;BME280;53694;49.784;30.150;2023-01-13T07:46:25;100329.53;;;0.48;65.90
61474;BME280;53694;49.784;30.150;2023-01-13T07:47:26;100327.97;;;0.32;66.46
61474;BME280;53694;49.784;30.150;2023-01-13T07:48:28;100332.36;;;0.08;67.02
61474;BME280;53694;49.784;30.150;2023-01-13T07:49:30;100335.12;;;-0.18;67.37
61474;BME280;53694;49.784;30.150;2023-01-13T07:50:32;100336.52;;;-0.46;68.26
61474;BME280;53694;49.784;30.150;2023-01-13T07:51:36;100340.02;;;-0.76;69.11
61474;BME280;53694;49.784;30.150;2023-01-13T07:52:38;100334.05;;;-1.04;70.11
61474;BME280;53694;49.784;30.150;2023-01-13T07:53:40;100336.16;;;-1.26;71.05
61474;BME280;53694;49.784;30.150;2023-01-13T07:54:41;100340.67;;;-1.47;71.74
61474;BME280;53694;49.784;30.150;2023-01-13T07:55:43;100341.16;;;-1.60;72.39
61474;BME280;53694;49.784;30.150;2023-01-13T07:56:45;100340.89;;;-1.59;72.92
61474;BME280;53694;49.784;30.150;2023-01-13T07:57:47;100341.25;;;-1.40;73.01
61474;BME280;53694;49.784;30.150;2023-01-13T07:58:48;100342.13;;;-1.14;72.54
61474;BME280;53694;49.784;30.150;2023-01-13T07:59:50;100344.58;;;-0.87;71.37
61474;BME280;53694;49.784;30.150;2023-01-13T08:00:52;100345.41;;;-0.61;70.66
61474;BME280;53694;49.784;30.150;2023-01-13T08:01:54;100341.63;;;-0.29;70.19
61474;BME280;53694;49.784;30.150;2023-01-13T13:00:21;100245.80;;;-2.32;91.30
61474;BME280;53694;49.784;30.150;2023-01-13T13:01:33;100245.59;;;-2.20;90.95
61474;BME280;53694;49.784;30.150;2023-01-13T13:02:40;100249.73;;;-1.97;90.36
61474;BME280;53694;49.784;30.150;2023-01-13T13:04:05;100247.17;;;-1.57;89.15
61474;BME280;53694;49.784;30.150;2023-01-13T13:04:56;100252.09;;;-1.13;87.51
61474;BME280;53694;49.784;30.150;2023-01-13T13:07:16;100251.99;;;-0.26;83.27
61474;BME280;53694;49.784;30.150;2023-01-13T13:08:35;100241.34;;;0.13;80.95
61474;BME280;53694;49.784;30.150;2023-01-13T13:09:31;100241.40;;;0.53;79.55
61474;BME280;53694;49.784;30.150;2023-01-13T13:10:37;100244.44;;;1.19;76.17
61474;BME280;53694;49.784;30.150;2023-01-13T13:11:48;100244.44;;;1.19;76.17
61474;BME280;53694;49.784;30.150;2023-01-13T13:13:53;100253.62;;;1.77;73.17